Time;durP1;ratioP1;P1;durP2;ratioP2;P2;SDS_P1;SDS_P2;PMS_P1;PMS_P2;Temp;Humidity;BMP_temperature;BMP_pressure;BME280_temperature;BME280_humidity;BME280_pressure;Samples;Min_cycle;Max_cycle;Signal;HPM_P1;HPM_P2
2023/05/16 15:58:05;;;;;;;3.22;1.13;;;15.10;83.40;;;;;;5073667;28;20872;-65
2023/05/16 16:00:30;;;;;;;3.15;1.15;;;14.70;84.80;;;;;;5069224;28;20366;-66
2023/05/16 16:02:56;;;;;;;3.28;1.25;;;14.40;85.90;;;;;;5067301;28;20047;-66
2023/05/16 16:05:21;;;;;;;4.60;1.25;;;14.30;88.50;;;;;;5068805;28;20047;-66
2023/05/16 16:07:47;;;;;;;4.80;1.40;;;14.20;88.30;;;;;;5084533;28;20047;-67
2023/05/16 16:10:12;;;;;;;2.97;1.23;;;14.20;88.90;;;;;;5087305;28;20032;-68
2023/05/16 16:12:38;;;;;;;4.07;1.30;;;14.20;88.30;;;;;;5089007;28;20016;-69
2023/05/16 16:15:05;;;;;;;3.63;1.08;;;14.20;88.30;;;;;;5086943;28;20489;-67
2023/05/16 16:17:31;;;;;;;3.80;1.35;;;14.30;89.60;;;;;;5067585;28;20040;-69
2023/05/16 16:19:57;;;;;;;7.10;1.40;;;14.30;90.10;;;;;;5067910;28;20089;-68
2023/05/16 16:22:23;;;;;;;5.00;1.10;;;14.30;87.20;;;;;;5069128;28;20021;-67
2023/05/16 16:24:49;;;;;;;5.22;1.15;;;14.30;87.40;;;;;;5068602;28;20379;-68
2023/05/16 16:27:15;;;;;;;3.25;1.27;;;14.20;86.00;;;;;;5068752;28;20035;-65
2023/05/16 16:29:40;;;;;;;5.57;1.20;;;14.10;87.30;;;;;;5072155;28;20098;-65
2023/05/16 16:32:06;;;;;;;3.10;1.08;;;14.00;87.70;;;;;;5068700;28;20380;-66
2023/05/16 16:34:32;;;;;;;4.75;1.17;;;13.90;88.50;;;;;;5068102;28;20113;-65
2023/05/16 16:36:57;;;;;;;2.83;1.70;;;13.90;89.60;;;;;;5068274;28;20032;-66
2023/05/16 16:39:24;;;;;;;3.47;1.00;;;13.90;89.40;;;;;;5067371;28;20382;-67
2023/05/16 16:41:50;;;;;;;5.13;1.25;;;13.80;89.80;;;;;;5052260;28;20029;-68
2023/05/16 16:44:15;;;;;;;4.85;1.88;;;13.80;88.90;;;;;;5067137;28;20021;-67
2023/05/16 16:46:41;;;;;;;3.42;0.95;;;13.70;88.90;;;;;;5068520;28;20485;-66
2023/05/16 16:49:07;;;;;;;4.90;1.10;;;13.60;90.30;;;;;;5053523;28;20029;-67
2023/05/16 16:51:33;;;;;;;5.25;1.10;;;13.60;90.30;;;;;;5060995;28;20119;-66
2023/05/16 16:53:59;;;;;;;6.28;1.15;;;13.60;90.40;;;;;;5067184;28;20104;-68
2023/05/16 16:56:28;;;;;;;6.95;1.58;;;13.50;90.60;;;;;;5053545;28;20161;-68
2023/05/16 16:58:55;;;;;;;9.35;1.23;;;13.50;90.70;;;;;;5046890;28;20461;-66
2023/05/16 17:01:21;;;;;;;7.47;1.50;;;13.50;90.90;;;;;;5056442;28;20029;-69
2023/05/16 17:03:47;;;;;;;4.53;0.95;;;13.50;91.10;;;;;;5084183;28;20043;-69
2023/05/16 17:06:12;;;;;;;4.95;1.38;;;13.60;91.40;;;;;;5088012;28;20059;-69
2023/05/16 17:08:38;;;;;;;4.97;1.10;;;13.60;91.50;;;;;;5067178;28;20094;-68
2023/05/16 17:11:04;;;;;;;3.72;1.00;;;13.70;91.60;;;;;;5054244;28;20033;-68
2023/05/16 17:13:32;;;;;;;6.38;1.45;;;13.70;91.60;;;;;;5044341;28;20075;-66
2023/05/16 17:15:59;;;;;;;4.78;1.40;;;13.70;91.50;;;;;;5034059;28;20018;-66
2023/05/16 17:18:25;;;;;;;2.85;1.00;;;13.60;90.60;;;;;;5042075;28;20478;-66
2023/05/16 17:20:52;;;;;;;4.15;1.35;;;13.60;91.10;;;;;;5051954;28;20025;-65
2023/05/16 17:23:18;;;;;;;4.80;1.10;;;13.60;91.40;;;;;;5054114;28;20021;-67
2023/05/16 17:25:44;;;;;;;3.55;1.08;;;13.60;91.30;;;;;;5053271;28;20032;-67
2023/05/16 17:28:09;;;;;;;2.88;0.80;;;13.60;91.50;;;;;;5053402;28;20044;-65
2023/05/16 17:30:35;;;;;;;2.92;1.10;;;13.60;91.70;;;;;;5053830;28;20031;-66
2023/05/16 17:33:01;;;;;;;5.97;1.63;;;13.50;91.70;;;;;;5054107;28;20040;-66
2023/05/16 17:35:26;;;;;;;4.40;1.35;;;13.50;91.80;;;;;;5053127;28;20083;-64
2023/05/16 17:37:52;;;;;;;5.82;1.50;;;13.50;91.80;;;;;;5053687;28;20072;-63
2023/05/16 17:40:18;;;;;;;4.82;1.25;;;13.50;91.80;;;;;;5044305;28;20021;-66
2023/05/16 17:42:44;;;;;;;3.53;1.10;;;13.50;91.90;;;;;;5052329;28;20386;-64
2023/05/16 17:45:12;;;;;;;2.90;1.05;;;13.40;91.70;;;;;;5048574;28;20105;-63
2023/05/16 17:47:38;;;;;;;5.47;1.23;;;13.30;92.00;;;;;;5069208;28;20397;-64
2023/05/16 17:50:05;;;;;;;2.63;1.10;;;13.20;92.20;;;;;;5050794;28;20029;-64
2023/05/16 17:52:31;;;;;;;4.35;1.27;;;13.20;92.30;;;;;;5038664;28;20457;-63
2023/05/16 17:54:57;;;;;;;4.97;1.10;;;13.20;92.60;;;;;;5037038;28;20091;-64
2023/05/16 17:57:23;;;;;;;1.58;0.90;;;13.10;93.20;;;;;;5053239;28;20033;-65
2023/05/16 17:59:48;;;;;;;3.47;1.20;;;13.00;94.00;;;;;;5048255;28;20031;-63
2023/05/16 18:02:15;;;;;;;4.00;1.00;;;12.90;94.60;;;;;;5062606;28;20100;-64
2023/05/16 18:04:41;;;;;;;6.25;1.45;;;12.80;94.70;;;;;;5052734;28;20020;-64
2023/05/16 18:07:07;;;;;;;3.13;1.20;;;12.80;94.90;;;;;;5067591;28;20043;-63
2023/05/16 18:09:33;;;;;;;5.53;1.35;;;12.70;95.30;;;;;;5054565;28;20021;-64
2023/05/16 18:12:00;;;;;;;4.65;1.10;;;12.60;96.60;;;;;;5079896;28;20089;-65
2023/05/16 18:14:25;;;;;;;5.82;1.92;;;12.40;99.10;;;;;;5058782;28;20017;-63
2023/05/16 18:16:51;;;;;;;8.95;1.63;;;12.30;99.90;;;;;;5066430;28;20052;-64
2023/05/16 18:19:17;;;;;;;6.78;1.65;;;12.20;99.90;;;;;;5063098;28;20032;-63
2023/05/16 18:21:43;;;;;;;2.55;1.30;;;12.20;99.90;;;;;;5072699;28;20028;-62
2023/05/16 18:24:11;;;;;;;1.88;1.00;;;12.10;99.90;;;;;;5072047;28;20455;-65
2023/05/16 18:26:37;;;;;;;3.42;1.20;;;12.00;99.90;;;;;;5073130;28;20024;-64
2023/05/16 18:29:03;;;;;;;2.60;1.02;;;12.00;99.90;;;;;;5072685;28;20537;-64
2023/05/16 18:31:30;;;;;;;2.08;1.00;;;12.00;99.90;;;;;;5063774;28;20024;-64
2023/05/16 18:33:56;;;;;;;3.17;1.25;;;12.00;99.90;;;;;;5074990;28;20057;-64
2023/05/16 18:36:22;;;;;;;3.92;1.30;;;12.00;99.90;;;;;;5090633;28;20070;-65
2023/05/16 18:38:47;;;;;;;4.07;1.20;;;12.00;99.90;;;;;;5072048;28;20056;-64
2023/05/16 18:41:13;;;;;;;3.28;1.33;;;12.00;99.90;;;;;;5071009;28;20029;-64
2023/05/16 18:43:39;;;;;;;3.25;1.00;;;12.00;99.90;;;;;;5070583;28;20021;-64
2023/05/16 18:46:04;;;;;;;3.03;0.98;;;12.00;99.90;;;;;;5071683;28;20503;-64
2023/05/16 18:48:30;;;;;;;1.73;1.02;;;12.00;99.90;;;;;;5072398;28;20380;-64
2023/05/16 18:50:56;;;;;;;1.42;1.02;;;12.10;99.90;;;;;;5071387;28;20102;-64
2023/05/16 18:53:21;;;;;;;6.07;1.83;;;12.10;99.90;;;;;;5072336;28;20484;-63
2023/05/16 18:55:47;;;;;;;3.50;1.25;;;12.10;99.90;;;;;;5054181;28;20085;-64
2023/05/16 18:58:13;;;;;;;2.72;1.17;;;12.10;99.90;;;;;;5053588;28;20020;-65
2023/05/16 19:00:39;;;;;;;4.03;1.30;;;12.10;99.90;;;;;;5072270;28;20024;-64
2023/05/16 19:03:04;;;;;;;1.33;1.02;;;12.20;99.90;;;;;;5072027;28;20046;-64
2023/05/16 19:05:30;;;;;;;5.85;1.67;;;12.20;99.90;;;;;;5053848;28;20012;-64
2023/05/16 19:07:55;;;;;;;3.40;1.58;;;12.20;99.90;;;;;;5054092;28;20048;-64
2023/05/16 19:10:23;;;;;;;5.75;2.35;;;12.10;99.90;;;;;;5053961;28;20066;-65
2023/05/16 19:12:49;;;;;;;4.10;1.85;;;12.10;99.90;;;;;;5053679;28;20020;-63
2023/05/16 19:15:15;;;;;;;4.13;1.70;;;12.10;99.90;;;;;;5053807;28;20027;-63
2023/05/16 19:17:41;;;;;;;4.07;1.60;;;12.00;99.90;;;;;;5054137;28;20036;-64
2023/05/16 19:20:10;;;;;;;5.78;1.92;;;11.90;99.90;;;;;;5070858;28;20078;-64
2023/05/16 19:22:35;;;;;;;4.60;1.40;;;11.80;99.90;;;;;;5072163;28;20048;-63
2023/05/16 19:25:02;;;;;;;4.85;1.75;;;11.70;99.90;;;;;;5053662;28;20493;-64
2023/05/16 19:27:27;;;;;;;3.15;1.77;;;11.60;99.90;;;;;;5053529;28;20115;-63
2023/05/16 19:29:53;;;;;;;3.45;1.40;;;11.40;99.90;;;;;;5071801;28;20096;-63
2023/05/16 19:32:19;;;;;;;2.70;1.40;;;11.40;99.90;;;;;;5071233;28;20034;-63
2023/05/16 19:34:45;;;;;;;3.03;1.38;;;11.30;99.90;;;;;;5071145;28;20092;-64
2023/05/16 19:37:11;;;;;;;2.33;1.17;;;11.30;99.90;;;;;;5071322;28;20556;-64
2023/05/16 19:39:36;;;;;;;4.47;1.40;;;11.30;99.90;;;;;;5071717;28;20071;-63
2023/05/16 19:42:02;;;;;;;4.05;1.42;;;11.20;99.90;;;;;;5070782;28;20046;-66
2023/05/16 19:44:28;;;;;;;2.40;1.10;;;11.20;99.90;;;;;;5071638;28;20012;-64
2023/05/16 19:46:53;;;;;;;4.22;1.20;;;11.10;99.90;;;;;;5071141;28;20035;-64
2023/05/16 19:49:19;;;;;;;3.22;1.20;;;11.00;99.90;;;;;;5071238;28;20520;-64
2023/05/16 19:51:44;;;;;;;3.80;1.33;;;10.90;99.90;;;;;;5071766;28;20020;-64
2023/05/16 19:54:10;;;;;;;3.05;1.30;;;10.80;99.90;;;;;;5070524;28;20046;-64
2023/05/16 19:56:36;;;;;;;4.43;1.38;;;10.70;99.90;;;;;;5071417;28;20040;-63
2023/05/16 19:59:01;;;;;;;4.22;1.40;;;10.60;99.90;;;;;;5053260;28;20031;-65
2023/05/16 20:01:27;;;;;;;4.53;1.30;;;10.60;99.90;;;;;;5070913;28;20108;-65
2023/05/16 20:03:52;;;;;;;4.05;1.10;;;10.50;99.90;;;;;;5071648;28;20047;-65
2023/05/16 20:06:18;;;;;;;2.97;1.67;;;10.40;99.90;;;;;;5071175;28;20519;-64
2023/05/16 20:08:43;;;;;;;5.40;1.33;;;10.30;99.90;;;;;;5070779;28;20024;-64
2023/05/16 20:11:09;;;;;;;5.63;1.50;;;10.30;99.90;;;;;;5071168;28;20057;-65
2023/05/16 20:13:34;;;;;;;3.13;1.48;;;10.20;99.90;;;;;;5071339;28;20013;-64
2023/05/16 20:16:02;;;;;;;1.92;1.10;;;10.10;99.90;;;;;;5052504;28;20031;-63
2023/05/16 20:18:28;;;;;;;4.25;1.60;;;10.00;99.90;;;;;;5071470;28;20033;-63
2023/05/16 20:20:53;;;;;;;1.75;1.30;;;10.00;99.90;;;;;;5071263;28;20112;-64
2023/05/16 20:23:19;;;;;;;5.03;1.88;;;9.90;99.90;;;;;;5070208;28;20111;-63
2023/05/16 20:25:44;;;;;;;7.43;1.48;;;9.90;99.90;;;;;;5070944;28;20020;-65
2023/05/16 20:28:10;;;;;;;3.15;1.42;;;9.80;99.90;;;;;;5052926;28;20477;-64
2023/05/16 20:30:35;;;;;;;10.82;1.92;;;9.80;99.90;;;;;;5052653;28;20351;-64
2023/05/16 20:33:01;;;;;;;4.60;1.63;;;9.80;99.90;;;;;;5052974;28;20484;-65
2023/05/16 20:35:27;;;;;;;4.60;1.85;;;9.80;99.90;;;;;;5071517;28;20044;-64
2023/05/16 20:37:54;;;;;;;3.83;1.70;;;9.70;99.90;;;;;;5070587;28;20025;-63
2023/05/16 20:40:20;;;;;;;4.35;1.75;;;9.70;99.90;;;;;;5052878;28;20025;-64
2023/05/16 20:42:45;;;;;;;5.20;2.22;;;9.70;99.90;;;;;;5053622;28;20037;-64
2023/05/16 20:45:11;;;;;;;4.75;1.90;;;9.70;99.90;;;;;;5073780;28;20025;-65
2023/05/16 20:47:36;;;;;;;3.45;1.70;;;9.60;99.90;;;;;;5075129;28;20048;-65
2023/05/16 20:50:03;;;;;;;7.80;2.35;;;9.50;99.90;;;;;;5056441;28;20021;-65
2023/05/16 20:52:28;;;;;;;4.82;2.47;;;9.60;99.90;;;;;;5074142;28;20122;-64
2023/05/16 20:54:55;;;;;;;5.18;1.65;;;9.50;99.90;;;;;;5074823;28;20027;-64
2023/05/16 20:57:21;;;;;;;5.30;1.77;;;9.50;99.90;;;;;;5055969;28;20048;-65
2023/05/16 20:59:46;;;;;;;4.68;1.85;;;9.50;99.90;;;;;;5078617;28;20103;-64
2023/05/16 21:02:12;;;;;;;6.40;1.90;;;9.40;99.90;;;;;;5072991;28;20028;-65
2023/05/16 21:04:38;;;;;;;3.30;2.08;;;9.40;99.90;;;;;;5090022;28;20464;-65
2023/05/16 21:07:04;;;;;;;6.13;1.80;;;9.40;99.90;;;;;;5086085;28;20032;-64
2023/05/16 21:09:30;;;;;;;4.15;1.73;;;9.40;99.90;;;;;;5074634;28;20051;-65
2023/05/16 21:11:57;;;;;;;2.88;1.67;;;9.30;99.90;;;;;;5073626;28;20500;-63
2023/05/16 21:14:23;;;;;;;6.05;2.25;;;9.30;99.90;;;;;;5075898;28;20446;-63
2023/05/16 21:16:49;;;;;;;7.18;2.10;;;9.30;99.90;;;;;;5075699;28;20033;-63
2023/05/16 21:19:14;;;;;;;4.88;2.10;;;9.20;99.90;;;;;;5074133;28;20040;-62
2023/05/16 21:21:40;;;;;;;6.47;2.10;;;9.20;99.90;;;;;;5056503;28;20021;-62
2023/05/16 21:24:06;;;;;;;6.82;2.40;;;9.10;99.90;;;;;;5056334;28;20016;-62
2023/05/16 21:26:31;;;;;;;6.63;2.25;;;9.10;99.90;;;;;;5055629;28;20552;-63
2023/05/16 21:28:57;;;;;;;8.73;2.25;;;9.10;99.90;;;;;;5076029;28;20557;-63
2023/05/16 21:31:23;;;;;;;6.15;2.00;;;9.10;99.90;;;;;;5091303;28;20033;-62
2023/05/16 21:33:51;;;;;;;6.10;2.10;;;9.10;99.90;;;;;;5093834;28;20019;-63
2023/05/16 21:36:17;;;;;;;8.50;2.50;;;9.00;99.90;;;;;;5094475;28;20020;-63
2023/05/16 21:38:43;;;;;;;3.78;1.77;;;9.00;99.90;;;;;;5086699;28;20029;-63
2023/05/16 21:41:09;;;;;;;6.78;1.95;;;8.90;99.90;;;;;;5090454;28;20020;-63
2023/05/16 21:43:34;;;;;;;7.68;2.40;;;8.90;99.90;;;;;;5094323;28;20078;-64
2023/05/16 21:46:00;;;;;;;5.82;2.22;;;8.90;99.90;;;;;;5093895;28;20016;-63
2023/05/16 21:48:26;;;;;;;6.10;2.15;;;8.90;99.90;;;;;;5093754;28;20492;-63
2023/05/16 21:50:51;;;;;;;6.45;3.00;;;8.90;99.90;;;;;;5094014;28;20024;-63
2023/05/16 21:53:17;;;;;;;9.95;2.45;;;8.90;99.90;;;;;;5091883;28;20503;-62
2023/05/16 21:55:43;;;;;;;5.88;2.20;;;8.90;99.90;;;;;;5093105;28;20016;-63
2023/05/16 21:58:09;;;;;;;5.38;2.03;;;8.90;99.90;;;;;;5093235;28;20036;-63
2023/05/16 22:00:35;;;;;;;5.60;2.15;;;8.90;99.90;;;;;;5073790;28;20070;-62
2023/05/16 22:03:00;;;;;;;9.35;2.80;;;8.90;99.90;;;;;;5073957;28;20111;-63
2023/05/16 22:05:26;;;;;;;3.95;2.13;;;8.90;99.90;;;;;;5074201;28;20036;-63
2023/05/16 22:07:52;;;;;;;7.93;2.40;;;8.80;99.90;;;;;;5074375;28;20031;-63
2023/05/16 22:10:18;;;;;;;9.20;2.30;;;8.80;99.90;;;;;;5093394;28;20070;-64
2023/05/16 22:12:43;;;;;;;7.03;2.35;;;8.70;99.90;;;;;;5093641;28;20022;-63
2023/05/16 22:15:10;;;;;;;7.90;2.40;;;8.70;99.90;;;;;;5092529;28;20558;-63
2023/05/16 22:17:35;;;;;;;8.52;2.35;;;8.70;99.90;;;;;;5093741;28;20495;-63
2023/05/16 22:20:01;;;;;;;9.55;2.53;;;8.60;99.90;;;;;;5093330;28;20020;-63
2023/05/16 22:22:27;;;;;;;9.43;2.28;;;8.60;99.90;;;;;;5090925;28;20020;-63
2023/05/16 22:24:52;;;;;;;8.07;3.40;;;8.60;99.90;;;;;;5073238;28;20063;-63
2023/05/16 22:27:18;;;;;;;8.73;2.63;;;8.60;99.90;;;;;;5093125;28;20047;-63
2023/05/16 22:29:43;;;;;;;13.63;3.00;;;8.60;99.90;;;;;;5083626;28;20311;-63
2023/05/16 22:32:09;;;;;;;5.70;2.35;;;8.50;99.90;;;;;;5067652;28;20027;-65
2023/05/16 22:34:38;;;;;;;10.43;2.63;;;8.50;99.90;;;;;;5072967;28;20449;-63
2023/05/16 22:37:05;;;;;;;9.23;2.35;;;8.40;99.90;;;;;;5071802;28;20029;-63
2023/05/16 22:39:30;;;;;;;12.50;2.83;;;8.40;99.90;;;;;;5072685;28;20070;-63
2023/05/16 22:41:56;;;;;;;5.53;2.45;;;8.40;99.90;;;;;;5072844;28;20036;-63
2023/05/16 22:44:21;;;;;;;8.75;2.58;;;8.30;99.90;;;;;;5082172;28;20171;-63
2023/05/16 22:46:47;;;;;;;9.35;2.30;;;8.40;99.90;;;;;;5090907;28;20053;-64
